Главная страница
METAR-TAF:

METAR-TAF

Аэропорты :

Тарава, Кирибати

Бонрики

широта: 01-21N, долгота: 172-55E, высота над уровнем моря: 2 м

Текущие метеонаблюдения

Эта сводка был подготовлена 46 минут назад, в 09:00 UTC
Ветер 14 Узел от восточный
Температура 28°C
Влажность 79%
Давление 1005 hPa
Видимость 10 км и более
Отдельные облака на высоте 1900 фута
Рассеянная облачность на высоте 30000 фута

METAR: NGTA 240900Z 09014KT 9999 SCT019 BKN300 28/24 Q1005

Время: 23:46 (09:46 UTC)

Прогноз

Эта сводка был подготовлена 4 часа и 27 минут назад, в 05:19 UTC
Прогноз действительный с 24-го 06 UTC до 25-го 06 UTC
Ветер 13 Узел от восточно-северо-восточный
Видимость 10 км и более
небольшая облачность на высоте 1900 фута
Отдельные облака на высоте 4000 фута

TAF: NGTA 240519Z 2406/2506 07013KT 9999 FEW019 SCT040

Метеонаблюдения и прогнозы для более 4000 аэропортов (сводки METAR и TAF).

Имеющиеся станции представлены на карте желтыми и красными точками.

Чтобы увидеть название станции, наведите на нее мышь.

Затем щелкните, чтобы увидеть метеонаблюдения и метеопрогнозы.

Управление картой: чтобы увеличить масштаб, щелкните зеленые кнопки с черным крестиком; чтобы уменьшить масштаб, щелкните зеленую кнопку с тире; для просмотра соседних карт щелкайте зеленые стрелки.


METAR-TAF: